Time;durP1;ratioP1;P1;durP2;ratioP2;P2;SDS_P1;SDS_P2;PMS_P1;PMS_P2;Temp;Humidity;BMP_temperature;BMP_pressure;BME280_temperature;BME280_humidity;BME280_pressure;Samples;Min_cycle;Max_cycle;Signal;HPM_P1;HPM_P2
2020/12/22 00:01:34;;;;;;;2.80;2.53;;;12.40;58.70;;;;;;4980720;28;20400;-94
2020/12/22 00:04:00;;;;;;;3.73;2.93;;;12.80;57.60;;;;;;4981179;28;20176;-93
2020/12/22 00:10:17;;;;;;;2.97;2.73;;;13.00;55.20;;;;;;4999012;28;20612;-94
2020/12/22 00:12:43;;;;;;;2.20;2.10;;;13.40;55.80;;;;;;4984193;28;20429;-93
2020/12/22 00:15:10;;;;;;;2.70;2.50;;;13.00;56.20;;;;;;4985260;28;20895;-92
2020/12/22 00:18:04;;;;;;;2.57;2.37;;;13.40;56.10;;;;;;4983998;28;20180;-92
2020/12/22 00:20:30;;;;;;;3.53;2.43;;;13.60;55.40;;;;;;4985560;28;20447;-91
2020/12/22 00:23:19;;;;;;;4.00;3.70;;;13.60;54.60;;;;;;4984732;28;20754;-91
2020/12/22 00:25:47;;;;;;;4.50;4.20;;;13.50;54.00;;;;;;4983471;28;20985;-94
2020/12/22 00:28:14;;;;;;;3.37;3.00;;;13.20;55.00;;;;;;4984980;28;20404;-91
2020/12/22 00:30:49;;;;;;;1.80;1.70;;;13.30;55.30;;;;;;4985234;28;20494;-95
2020/12/22 00:33:22;;;;;;;1.90;1.80;;;12.90;57.00;;;;;;4983388;28;20545;-92
2020/12/22 00:35:47;;;;;;;1.40;1.30;;;12.90;57.00;;;;;;4982943;28;20467;-92
2020/12/22 00:38:20;;;;;;;1.83;1.60;;;12.90;57.00;;;;;;4983802;28;20414;-94
2020/12/22 00:40:46;;;;;;;1.83;1.30;;;13.30;57.30;;;;;;4983534;28;20172;-93
2020/12/22 00:43:47;;;;;;;1.13;1.00;;;13.30;57.30;;;;;;4983362;28;20965;-92
2020/12/22 00:46:15;;;;;;;0.93;0.80;;;13.30;57.20;;;;;;4983745;28;20211;-94
2020/12/22 00:48:44;;;;;;;0.80;0.80;;;13.30;57.60;;;;;;4983514;28;20414;-94
2020/12/22 00:51:13;;;;;;;0.93;0.80;;;13.20;58.40;;;;;;4983472;28;20403;-94
2020/12/22 00:53:59;;;;;;;0.80;0.80;;;13.30;58.60;;;;;;4982978;28;20535;-94
2020/12/22 00:56:25;;;;;;;2.60;0.90;;;13.20;58.20;;;;;;4983212;28;20430;-94
2020/12/22 00:59:05;;;;;;;0.80;0.80;;;13.30;59.50;;;;;;4983674;28;20395;-94
2020/12/22 01:01:30;;;;;;;0.73;0.73;;;13.40;58.70;;;;;;4983104;28;20191;-94
2020/12/22 01:04:13;;;;;;;0.93;0.90;;;13.30;58.00;;;;;;4982975;28;20400;-94
2020/12/22 01:06:39;;;;;;;1.33;0.77;;;13.50;58.40;;;;;;4983584;28;20208;-93
2020/12/22 01:09:06;;;;;;;1.93;0.60;;;13.20;58.40;;;;;;4982698;28;20404;-95
2020/12/22 01:11:37;;;;;;;0.90;0.70;;;13.30;58.90;;;;;;4982559;28;20928;-95
2020/12/22 01:14:06;;;;;;;0.63;0.60;;;13.30;59.70;;;;;;4982863;28;20478;-94
2020/12/22 01:16:33;;;;;;;0.80;0.60;;;13.20;59.60;;;;;;4984328;28;20412;-95
2020/12/22 01:18:59;;;;;;;1.17;1.07;;;13.20;59.20;;;;;;4983375;28;20404;-94
2020/12/22 01:21:25;;;;;;;0.80;0.67;;;13.00;60.00;;;;;;4990281;28;20431;-92
2020/12/22 01:23:51;;;;;;;0.57;0.50;;;13.40;59.50;;;;;;4983298;28;20407;-95
2020/12/22 01:27:08;;;;;;;1.10;0.70;;;13.40;59.20;;;;;;5083211;23;20260;-93
2020/12/22 01:29:39;;;;;;;1.23;0.50;;;13.30;58.70;;;;;;4948518;29;20178;-95
2020/12/22 01:32:10;;;;;;;0.50;0.50;;;13.50;59.00;;;;;;4966668;29;20386;-94
2020/12/22 01:34:54;;;;;;;0.80;0.50;;;13.40;58.30;;;;;;4945597;29;20854;-94
2020/12/22 02:43:17;;;;;;;0.50;0.40;;;13.90;57.70;;;;;;4997637;28;20478;-93
2020/12/22 02:45:44;;;;;;;0.90;0.63;;;13.60;58.20;;;;;;4980318;28;20546;-90
2020/12/22 02:48:31;;;;;;;0.60;0.50;;;13.70;59.30;;;;;;4980971;28;20399;-95
2020/12/22 02:50:57;;;;;;;0.50;0.40;;;13.60;60.30;;;;;;4984272;28;20420;-96
2020/12/22 02:53:23;;;;;;;0.70;0.50;;;13.80;59.40;;;;;;4985553;28;20502;-96
2020/12/22 02:59:11;;;;;;;0.60;0.60;;;13.80;58.80;;;;;;4998341;28;20219;-92
2020/12/22 03:02:21;;;;;;;0.60;0.53;;;13.70;58.70;;;;;;4980486;28;20499;-95
2020/12/22 03:04:47;;;;;;;0.50;0.43;;;13.80;59.50;;;;;;4997593;28;20176;-94
2020/12/22 03:07:23;;;;;;;0.80;0.50;;;13.60;59.80;;;;;;4980857;28;20445;-94
2020/12/22 03:09:49;;;;;;;0.83;0.60;;;13.50;59.40;;;;;;4979334;28;20176;-94
2020/12/22 03:12:14;;;;;;;0.50;0.40;;;13.90;59.10;;;;;;4979690;28;20769;-92
2020/12/22 03:14:40;;;;;;;0.47;0.40;;;13.90;58.10;;;;;;4979442;28;20176;-92
2020/12/22 03:17:06;;;;;;;0.70;0.60;;;13.90;58.30;;;;;;4980092;28;20219;-92
2020/12/22 03:19:31;;;;;;;0.83;0.50;;;14.00;57.80;;;;;;4980140;28;20184;-91
2020/12/22 03:22:12;;;;;;;0.70;0.43;;;14.10;57.30;;;;;;4979282;28;20586;-91
2020/12/22 03:24:38;;;;;;;0.70;0.70;;;14.30;57.30;;;;;;4980011;28;20184;-93
2020/12/22 03:27:04;;;;;;;0.50;0.40;;;14.00;57.70;;;;;;4980737;28;20868;-92
2020/12/22 03:29:54;;;;;;;0.50;0.40;;;13.80;57.70;;;;;;4980845;28;20643;-94
2020/12/22 03:32:20;;;;;;;0.70;0.40;;;13.90;57.70;;;;;;4980221;28;20176;-94
2020/12/22 03:34:46;;;;;;;0.60;0.50;;;13.80;57.70;;;;;;4980036;28;20442;-94
2020/12/22 03:37:19;;;;;;;0.57;0.50;;;13.80;58.40;;;;;;4979483;28;20194;-94
2020/12/22 03:39:53;;;;;;;0.50;0.50;;;13.90;57.80;;;;;;4976627;28;20275;-93
2020/12/22 03:42:23;;;;;;;0.63;0.40;;;13.90;57.80;;;;;;4977931;28;20884;-93
2020/12/22 03:44:49;;;;;;;1.00;0.60;;;13.80;57.80;;;;;;4977042;28;20431;-94
2020/12/22 03:47:17;;;;;;;0.47;0.40;;;13.90;58.20;;;;;;4976816;28;20217;-94
2020/12/22 03:49:43;;;;;;;0.67;0.50;;;14.30;58.10;;;;;;4977138;28;20647;-94
2020/12/22 03:52:09;;;;;;;1.53;0.40;;;14.10;57.10;;;;;;4977172;28;20453;-93
2020/12/22 03:54:36;;;;;;;0.50;0.40;;;14.10;57.00;;;;;;4976815;28;20440;-93
2020/12/22 03:57:03;;;;;;;0.80;0.40;;;13.90;57.40;;;;;;4977523;28;20187;-94
2020/12/22 03:59:30;;;;;;;0.60;0.40;;;14.10;57.90;;;;;;4976965;28;20421;-95
2020/12/22 04:01:55;;;;;;;0.50;0.40;;;14.00;57.90;;;;;;4976646;28;20491;-93
2020/12/22 04:04:23;;;;;;;0.50;0.40;;;13.90;57.10;;;;;;4976980;28;20420;-93
2020/12/22 04:06:56;;;;;;;0.60;0.40;;;14.20;58.00;;;;;;4976245;28;20209;-94
2020/12/22 04:09:22;;;;;;;0.50;0.40;;;14.10;58.10;;;;;;4976972;28;20782;-94
2020/12/22 04:11:49;;;;;;;0.50;0.40;;;13.80;57.80;;;;;;4976958;28;20408;-93
2020/12/22 04:14:18;;;;;;;0.40;0.30;;;14.00;58.20;;;;;;4976514;28;20766;-92
2020/12/22 04:16:45;;;;;;;1.43;0.40;;;14.10;58.20;;;;;;4976190;28;20938;-93
2020/12/22 04:19:11;;;;;;;0.50;0.50;;;13.80;58.50;;;;;;4976412;28;20416;-94
2020/12/22 04:21:37;;;;;;;0.83;0.50;;;13.80;59.00;;;;;;4976182;28;20495;-93
2020/12/22 04:24:04;;;;;;;0.67;0.50;;;13.90;59.30;;;;;;4976096;28;20417;-94
2020/12/22 04:26:30;;;;;;;0.50;0.40;;;13.80;59.60;;;;;;4976997;28;20550;-93
2020/12/22 04:29:09;;;;;;;0.60;0.40;;;13.70;59.40;;;;;;4976722;28;20756;-94
2020/12/22 04:31:35;;;;;;;0.40;0.33;;;13.90;59.60;;;;;;4977672;28;20413;-93
2020/12/22 04:34:20;;;;;;;0.70;0.40;;;13.90;60.40;;;;;;4976820;28;20409;-94
2020/12/22 04:36:46;;;;;;;0.50;0.40;;;13.80;60.20;;;;;;4975841;28;20181;-93
2020/12/22 04:39:12;;;;;;;0.50;0.40;;;13.90;60.10;;;;;;4979235;28;20466;-93
2020/12/22 04:41:48;;;;;;;0.50;0.40;;;13.90;60.60;;;;;;4978845;28;20639;-93
2020/12/22 04:44:18;;;;;;;0.80;0.80;;;13.90;59.80;;;;;;4978990;28;20180;-94
2020/12/22 04:46:50;;;;;;;0.60;0.40;;;14.00;60.10;;;;;;4978686;28;20965;-93
2020/12/22 04:49:50;;;;;;;0.53;0.40;;;14.00;59.20;;;;;;4978956;28;20462;-93
2020/12/22 04:52:16;;;;;;;2.20;0.60;;;14.30;59.50;;;;;;4978690;28;20442;-93
2020/12/22 04:54:42;;;;;;;0.97;0.50;;;14.30;59.10;;;;;;4979026;28;20465;-93
2020/12/22 04:57:31;;;;;;;0.50;0.40;;;14.10;58.80;;;;;;4978781;28;20202;-93
2020/12/22 04:59:59;;;;;;;0.50;0.40;;;14.00;58.80;;;;;;4981916;28;20407;-94
2020/12/22 05:02:28;;;;;;;0.40;0.40;;;14.30;58.10;;;;;;4982298;28;20929;-94
2020/12/22 05:05:07;;;;;;;0.50;0.40;;;14.40;58.10;;;;;;4982676;28;20464;-93
2020/12/22 05:07:33;;;;;;;1.27;0.40;;;14.50;57.20;;;;;;4983106;28;20466;-92
2020/12/22 05:10:05;;;;;;;0.60;0.40;;;14.50;57.50;;;;;;4983158;28;20903;-92
2020/12/22 05:15:54;;;;;;;0.50;0.40;;;14.40;57.80;;;;;;5014421;28;20472;-95
2020/12/22 05:21:42;;;;;;;1.03;0.50;;;14.90;57.20;;;;;;5001362;28;20379;-96
2020/12/22 05:27:32;;;;;;;0.90;0.70;;;14.60;56.30;;;;;;5001103;28;20542;-96
2020/12/22 05:33:19;;;;;;;0.50;0.50;;;15.00;56.90;;;;;;5001081;28;20399;-96
2020/12/22 05:42:42;;;;;;;0.80;0.80;;;14.40;57.30;;;;;;5000279;28;20430;-96
2020/12/22 05:48:30;;;;;;;3.23;0.60;;;14.40;57.30;;;;;;5000615;28;20191;-96
2020/12/22 05:51:35;;;;;;;1.13;0.60;;;14.50;57.00;;;;;;4982436;28;20826;-96
2020/12/22 05:54:13;;;;;;;12.00;8.67;;;14.40;56.20;;;;;;4998976;28;20414;-96
2020/12/22 05:56:39;;;;;;;1.20;0.87;;;14.50;55.90;;;;;;4982165;28;20418;-96
2020/12/22 06:02:32;;;;;;;1.10;0.80;;;15.00;56.00;;;;;;4999943;28;20532;-96
2020/12/22 06:08:49;;;;;;;0.73;0.50;;;14.70;55.20;;;;;;4998642;28;20591;-94
2020/12/22 06:14:43;;;;;;;0.60;0.50;;;14.50;54.60;;;;;;4998956;28;20434;-95
2020/12/22 06:20:31;;;;;;;0.60;0.50;;;14.60;54.60;;;;;;4999336;28;20380;-96
2020/12/22 06:26:20;;;;;;;1.93;1.83;;;14.90;55.00;;;;;;4999372;28;20459;-96
2020/12/22 06:32:17;;;;;;;4.00;0.77;;;15.30;54.30;;;;;;4999312;28;20383;-96
2020/12/22 09:37:10;;;;;;;1.00;1.00;;;15.90;53.90;;;;;;5003037;28;20763;-93
2020/12/22 09:39:37;;;;;;;1.10;1.00;;;15.70;54.30;;;;;;4981334;28;20444;-91
2020/12/22 09:42:22;;;;;;;0.90;0.80;;;15.80;55.00;;;;;;4980683;28;20452;-92
2020/12/22 09:44:48;;;;;;;0.60;0.60;;;15.70;55.70;;;;;;4981325;28;20989;-93
2020/12/22 09:47:32;;;;;;;2.13;1.17;;;15.60;55.20;;;;;;4984677;28;20439;-94
2020/12/22 09:50:00;;;;;;;2.17;1.97;;;15.70;54.70;;;;;;4985004;28;20404;-93
2020/12/22 09:52:38;;;;;;;1.00;0.90;;;16.10;55.20;;;;;;4987421;28;20404;-93
2020/12/22 09:55:04;;;;;;;1.93;0.70;;;15.80;54.50;;;;;;4979952;28;20919;-93
2020/12/22 09:57:53;;;;;;;1.10;1.00;;;16.10;54.10;;;;;;4982034;28;20427;-92
2020/12/22 10:00:18;;;;;;;3.13;1.00;;;16.00;53.90;;;;;;4981987;28;20184;-91
2020/12/22 10:02:44;;;;;;;1.33;0.98;;;15.90;53.90;;;;;;4973897;28;20473;-91
2020/12/22 10:05:11;;;;;;;0.80;0.60;;;15.80;53.70;;;;;;4966765;28;20208;-91
2020/12/22 10:07:36;;;;;;;0.60;0.60;;;16.00;53.50;;;;;;4982562;28;20200;-90
2020/12/22 10:10:21;;;;;;;1.47;0.80;;;15.90;53.60;;;;;;4982214;28;20404;-91
2020/12/22 10:12:47;;;;;;;1.07;1.03;;;16.10;53.10;;;;;;4984109;28;20711;-90
2020/12/22 10:15:19;;;;;;;1.43;1.20;;;16.30;52.90;;;;;;4981957;28;20427;-90
2020/12/22 10:17:45;;;;;;;1.00;0.97;;;15.90;53.40;;;;;;4986230;28;20176;-89
2020/12/22 10:20:49;;;;;;;1.13;0.97;;;15.90;53.30;;;;;;4986495;28;20411;-95
2020/12/22 10:23:14;;;;;;;1.17;0.60;;;16.10;52.80;;;;;;5005277;28;20176;-93
2020/12/22 10:25:47;;;;;;;0.90;0.60;;;16.00;52.80;;;;;;4983574;28;20495;-89
2020/12/22 10:28:17;;;;;;;0.90;0.50;;;16.10;52.40;;;;;;4980307;28;20181;-87
2020/12/22 10:30:44;;;;;;;1.23;0.83;;;15.80;52.60;;;;;;4984464;28;20404;-90
2020/12/22 10:33:09;;;;;;;1.27;0.60;;;16.00;53.60;;;;;;4982201;28;20586;-90
2020/12/22 10:35:35;;;;;;;1.00;0.93;;;15.90;53.10;;;;;;4981587;28;20914;-91
2020/12/22 10:38:05;;;;;;;0.60;0.60;;;16.10;53.20;;;;;;4982868;28;20177;-92
2020/12/22 10:40:31;;;;;;;1.03;0.90;;;16.20;52.90;;;;;;4986919;28;20189;-92
2020/12/22 10:43:21;;;;;;;1.63;1.03;;;15.90;53.20;;;;;;4983332;28;20937;-91
2020/12/22 10:45:47;;;;;;;0.70;0.70;;;16.00;54.00;;;;;;4983924;28;20172;-91
2020/12/22 10:48:43;;;;;;;1.73;0.70;;;15.80;53.90;;;;;;4983612;28;20424;-92
2020/12/22 10:51:09;;;;;;;44.50;32.87;;;15.90;54.20;;;;;;4983304;28;20462;-91
2020/12/22 10:53:35;;;;;;;1.37;1.07;;;16.00;53.30;;;;;;4982668;28;20495;-92
2020/12/22 10:56:02;;;;;;;0.80;0.70;;;16.50;53.10;;;;;;4980347;28;20474;-90
2020/12/22 10:58:29;;;;;;;1.20;1.10;;;16.10;53.10;;;;;;4983830;28;20508;-89
2020/12/22 11:00:55;;;;;;;1.53;1.10;;;16.10;53.10;;;;;;4982964;28;20424;-91
2020/12/22 11:03:27;;;;;;;1.10;1.00;;;16.00;53.20;;;;;;4980664;28;20518;-91
2020/12/22 11:08:49;;;;;;;0.70;0.60;;;16.30;53.40;;;;;;4999417;28;20419;-87
2020/12/22 11:11:15;;;;;;;2.00;1.00;;;16.10;53.60;;;;;;4982672;28;20411;-89
2020/12/22 11:13:46;;;;;;;0.60;0.60;;;16.20;53.60;;;;;;4980628;28;20426;-91
2020/12/22 11:16:15;;;;;;;1.07;0.60;;;16.30;52.60;;;;;;4984499;28;20427;-93
2020/12/22 11:22:15;;;;;;;0.77;0.63;;;16.10;52.20;;;;;;4994274;28;20386;-90
2020/12/22 11:24:40;;;;;;;0.60;0.60;;;16.30;52.20;;;;;;4982490;28;20496;-92
2020/12/22 11:27:07;;;;;;;0.93;0.80;;;16.30;52.30;;;;;;4980296;28;20981;-92
2020/12/22 11:29:32;;;;;;;1.83;0.90;;;16.30;52.80;;;;;;4986239;28;20647;-92
2020/12/22 11:31:58;;;;;;;2.30;1.17;;;16.40;52.30;;;;;;4985559;28;20464;-91
2020/12/22 11:34:33;;;;;;;1.60;1.10;;;16.90;51.60;;;;;;4985133;28;20415;-93
2020/12/22 11:37:00;;;;;;;1.07;0.83;;;16.90;51.40;;;;;;4987972;28;20283;-91
2020/12/22 11:39:26;;;;;;;1.30;1.20;;;16.70;51.60;;;;;;4983740;28;20419;-91
2020/12/22 11:42:41;;;;;;;0.60;0.60;;;16.80;51.90;;;;;;4984922;28;20423;-92
2020/12/22 11:45:08;;;;;;;0.70;0.63;;;16.10;53.00;;;;;;4974828;28;20224;-91
2020/12/22 11:47:51;;;;;;;2.20;0.90;;;16.30;52.80;;;;;;4984277;28;20450;-90
2020/12/22 11:50:18;;;;;;;0.90;0.70;;;16.40;52.70;;;;;;4968224;28;20405;-92
2020/12/22 11:56:15;;;;;;;0.83;0.70;;;16.80;52.50;;;;;;5003331;28;20430;-91
2020/12/22 11:58:42;;;;;;;0.70;0.70;;;16.50;51.90;;;;;;4983298;28;20411;-92
2020/12/22 12:01:11;;;;;;;1.20;0.90;;;16.60;52.40;;;;;;4984476;28;20500;-92
2020/12/22 12:03:37;;;;;;;0.67;0.60;;;16.60;52.50;;;;;;4980467;28;20462;-92
2020/12/22 12:06:03;;;;;;;0.97;0.70;;;16.60;53.10;;;;;;4978832;28;20423;-92
2020/12/22 12:08:29;;;;;;;0.90;0.70;;;16.50;52.90;;;;;;4981157;28;20184;-92
2020/12/22 12:10:55;;;;;;;1.50;0.70;;;16.60;52.50;;;;;;4983528;28;20400;-92
2020/12/22 12:13:21;;;;;;;2.13;0.80;;;16.20;53.40;;;;;;4982999;28;20416;-91
2020/12/22 12:15:57;;;;;;;1.13;0.70;;;16.10;53.70;;;;;;4982858;28;20490;-92
2020/12/22 12:18:22;;;;;;;1.27;0.67;;;16.30;54.50;;;;;;4983330;28;20183;-91
2020/12/22 12:20:50;;;;;;;2.17;1.53;;;16.20;54.40;;;;;;4983358;28;20409;-91
2020/12/22 12:23:16;;;;;;;1.43;0.90;;;16.30;55.00;;;;;;4982746;28;20280;-91
2020/12/22 12:26:14;;;;;;;1.23;0.93;;;16.50;55.50;;;;;;4983394;28;20440;-93
2020/12/22 12:28:41;;;;;;;2.13;0.63;;;16.00;54.80;;;;;;4984059;28;20212;-89
2020/12/22 12:31:11;;;;;;;1.17;1.03;;;16.20;55.30;;;;;;4987847;28;20424;-92
2020/12/22 12:33:37;;;;;;;0.77;0.70;;;16.30;56.20;;;;;;4998653;28;20527;-92
2020/12/22 12:40:13;;;;;;;0.90;0.70;;;16.10;55.80;;;;;;5002732;28;20160;-92
2020/12/22 12:42:38;;;;;;;0.70;0.60;;;16.10;56.50;;;;;;5000914;28;21039;-93
2020/12/22 12:48:28;;;;;;;0.57;0.53;;;16.10;58.80;;;;;;5001655;28;20223;-95
2020/12/22 12:50:54;;;;;;;0.70;0.70;;;15.90;58.60;;;;;;4984090;28;20407;-94
2020/12/22 12:53:44;;;;;;;0.70;0.60;;;15.80;60.00;;;;;;4984187;28;20407;-93
2020/12/22 12:56:14;;;;;;;1.43;0.60;;;15.60;59.60;;;;;;4983046;28;20219;-95
2020/12/22 12:58:41;;;;;;;1.10;0.80;;;15.50;60.80;;;;;;4984692;28;20415;-91
2020/12/22 13:01:10;;;;;;;0.60;0.57;;;15.70;60.00;;;;;;4983942;28;20504;-92
2020/12/22 13:03:41;;;;;;;0.73;0.73;;;15.60;59.10;;;;;;4983583;28;20412;-91
2020/12/22 13:06:08;;;;;;;1.90;0.73;;;15.70;60.70;;;;;;4982820;28;20407;-93
2020/12/22 13:08:34;;;;;;;0.70;0.70;;;15.60;61.00;;;;;;4982551;28;20495;-94
2020/12/22 13:11:11;;;;;;;1.93;1.00;;;15.50;62.30;;;;;;4983505;28;20408;-92
2020/12/22 13:13:36;;;;;;;0.70;0.57;;;15.70;62.40;;;;;;4984161;28;20921;-93
2020/12/22 13:16:02;;;;;;;1.30;0.67;;;15.20;63.60;;;;;;4984531;28;20413;-93
2020/12/22 13:18:28;;;;;;;1.73;1.00;;;15.30;63.80;;;;;;4984512;28;20236;-92
2020/12/22 13:21:21;;;;;;;1.00;0.80;;;15.50;65.40;;;;;;4978809;28;20448;-93
2020/12/22 13:23:47;;;;;;;0.87;0.70;;;15.40;66.10;;;;;;4984323;28;20180;-94
2020/12/22 13:26:43;;;;;;;1.20;0.80;;;15.40;65.70;;;;;;4984082;28;20895;-93
2020/12/22 13:29:14;;;;;;;1.40;1.30;;;16.00;65.70;;;;;;4984478;28;20422;-92
2020/12/22 13:32:19;;;;;;;0.80;0.80;;;15.60;65.50;;;;;;4984143;28;20963;-93
2020/12/22 13:34:45;;;;;;;1.00;0.90;;;15.60;65.30;;;;;;4985321;28;20487;-93
2020/12/22 13:40:37;;;;;;;1.43;1.07;;;15.60;65.40;;;;;;5002976;28;20155;-93
2020/12/22 13:46:26;;;;;;;1.00;0.77;;;15.30;67.40;;;;;;4983604;28;20520;-93
2020/12/22 13:52:14;;;;;;;1.20;1.00;;;15.70;65.70;;;;;;4980748;28;20388;-93
2020/12/22 13:54:56;;;;;;;1.23;0.90;;;15.70;65.70;;;;;;4985199;28;20515;-93
2020/12/22 13:57:22;;;;;;;1.63;0.90;;;15.60;65.10;;;;;;4983575;28;20490;-93
2020/12/22 14:03:15;;;;;;;3.17;1.47;;;15.90;65.00;;;;;;5000573;28;20432;-94
2020/12/22 14:05:41;;;;;;;1.30;1.17;;;16.10;65.40;;;;;;4984477;28;20408;-94
2020/12/22 14:08:07;;;;;;;1.20;1.10;;;16.00;63.90;;;;;;4982681;28;20590;-94
2020/12/22 14:11:10;;;;;;;0.80;0.60;;;16.00;64.80;;;;;;4982528;28;20178;-93
2020/12/22 14:13:36;;;;;;;8.57;7.40;;;16.00;64.30;;;;;;4984457;28;20462;-93
2020/12/22 14:16:18;;;;;;;2.27;2.07;;;15.90;65.20;;;;;;4981588;28;20399;-92
2020/12/22 14:18:45;;;;;;;2.30;2.10;;;15.60;65.50;;;;;;4981577;28;20188;-93
2020/12/22 14:24:32;;;;;;;1.37;1.27;;;15.90;65.30;;;;;;5001510;28;20921;-92
2020/12/22 14:30:20;;;;;;;1.40;1.30;;;16.00;64.90;;;;;;4999468;28;20173;-94
2020/12/22 14:32:45;;;;;;;1.20;1.10;;;15.90;64.30;;;;;;4980937;28;20994;-93
2020/12/22 14:35:47;;;;;;;1.97;0.90;;;16.20;65.40;;;;;;4982398;28;20456;-92
2020/12/22 14:38:13;;;;;;;1.40;1.30;;;16.00;66.30;;;;;;4985740;28;20191;-92
2020/12/22 14:40:39;;;;;;;1.27;1.17;;;16.00;66.50;;;;;;4985310;28;20769;-92
2020/12/22 14:43:07;;;;;;;1.40;1.30;;;16.10;65.70;;;;;;4981833;28;20419;-92
2020/12/22 14:45:32;;;;;;;0.70;0.70;;;16.30;63.30;;;;;;4986264;28;20412;-93
2020/12/22 14:47:58;;;;;;;1.57;1.47;;;16.10;64.90;;;;;;4981554;28;20459;-92
2020/12/22 14:50:24;;;;;;;3.50;2.23;;;16.10;64.10;;;;;;4988151;28;20177;-91
2020/12/22 14:53:30;;;;;;;6.50;5.70;;;16.10;64.10;;;;;;4981578;28;20276;-92
2020/12/22 14:55:56;;;;;;;4.90;2.97;;;15.90;63.30;;;;;;4993033;28;20173;-92
2020/12/22 14:58:22;;;;;;;3.03;2.40;;;16.00;64.10;;;;;;4996319;28;20829;-93
2020/12/22 15:00:49;;;;;;;3.27;2.97;;;16.00;64.70;;;;;;4991143;28;20403;-93
2020/12/22 15:03:15;;;;;;;3.00;2.70;;;15.90;65.60;;;;;;4990749;28;20204;-93
2020/12/22 15:05:54;;;;;;;2.70;2.37;;;15.90;66.20;;;;;;4990906;28;20411;-92
2020/12/22 15:08:20;;;;;;;2.47;2.23;;;15.90;65.30;;;;;;4986468;28;20447;-93
2020/12/22 15:11:35;;;;;;;41.80;31.77;;;16.50;64.00;;;;;;4982492;28;20896;-93
2020/12/22 15:14:01;;;;;;;4.57;3.10;;;16.00;64.60;;;;;;4985045;28;20168;-92
2020/12/22 15:16:38;;;;;;;3.33;2.60;;;16.30;64.70;;;;;;4980224;28;20771;-92
2020/12/22 15:19:04;;;;;;;2.47;2.20;;;15.90;65.70;;;;;;4980689;28;20416;-89
2020/12/22 15:21:45;;;;;;;2.90;2.40;;;16.00;64.40;;;;;;4980411;28;20409;-89
2020/12/22 15:24:11;;;;;;;3.03;2.10;;;16.10;65.70;;;;;;4979779;28;20405;-92
2020/12/22 15:26:37;;;;;;;35.13;31.43;;;16.10;64.30;;;;;;4979684;28;20433;-90
2020/12/22 15:29:03;;;;;;;2.73;2.43;;;16.20;62.60;;;;;;4980447;28;20407;-92
2020/12/22 15:34:58;;;;;;;3.93;3.60;;;16.00;61.20;;;;;;4980206;28;20267;-94
2020/12/22 15:37:40;;;;;;;3.43;3.03;;;16.20;60.60;;;;;;4984975;28;20465;-92
2020/12/22 15:40:06;;;;;;;3.80;3.40;;;16.70;60.50;;;;;;4981402;28;20192;-89
2020/12/22 15:42:37;;;;;;;4.70;4.30;;;16.60;60.00;;;;;;4975731;28;20420;-89
2020/12/22 15:45:03;;;;;;;3.73;3.43;;;16.50;59.90;;;;;;4977450;28;20648;-90
2020/12/22 15:47:43;;;;;;;5.93;5.33;;;16.40;59.80;;;;;;4977473;28;20681;-91
2020/12/22 15:50:09;;;;;;;5.90;5.27;;;16.70;60.00;;;;;;4979285;28;20440;-93
2020/12/22 15:52:36;;;;;;;3.97;3.20;;;16.70;59.00;;;;;;4978614;28;20775;-89
2020/12/22 15:55:02;;;;;;;2.80;1.63;;;16.80;59.20;;;;;;4970841;28;20423;-81
2020/12/22 15:57:28;;;;;;;1.37;1.20;;;16.40;59.70;;;;;;4972754;28;20828;-82
2020/12/22 15:59:54;;;;;;;2.00;1.90;;;16.40;60.50;;;;;;4973201;28;20417;-90
2020/12/22 16:02:22;;;;;;;1.50;1.40;;;16.20;59.70;;;;;;4973544;28;20424;-92
2020/12/22 16:04:49;;;;;;;2.30;2.10;;;16.70;59.10;;;;;;4973722;28;20413;-92
2020/12/22 16:07:20;;;;;;;1.57;1.47;;;16.70;57.90;;;;;;4976101;28;20456;-93
2020/12/22 16:09:46;;;;;;;2.30;2.10;;;16.40;58.60;;;;;;4975692;28;20415;-93
2020/12/22 16:12:26;;;;;;;2.00;1.57;;;16.90;58.70;;;;;;4975704;28;20907;-93
2020/12/22 16:14:52;;;;;;;1.57;1.47;;;16.60;58.20;;;;;;4975493;28;20404;-92
2020/12/22 16:18:01;;;;;;;3.90;1.80;;;16.40;58.90;;;;;;4975776;28;20790;-95
2020/12/22 16:20:27;;;;;;;2.65;1.40;;;16.90;59.40;;;;;;4974037;28;20282;-93
2020/12/22 16:23:18;;;;;;;2.20;1.40;;;16.50;58.40;;;;;;4981365;28;20189;-95
2020/12/22 16:25:43;;;;;;;1.60;1.50;;;16.40;58.40;;;;;;4980231;28;20185;-92
2020/12/22 16:28:36;;;;;;;1.27;1.10;;;16.10;58.10;;;;;;4981546;28;20492;-95
2020/12/22 16:31:03;;;;;;;1.37;1.27;;;16.40;57.90;;;;;;4973027;28;20224;-88
2020/12/22 16:40:52;;;;;;;2.00;1.53;;;15.70;60.40;;;;;;5001712;28;20399;-94
2020/12/22 16:50:03;;;;;;;1.87;1.70;;;15.70;61.10;;;;;;5005974;28;20379;-92
2020/12/22 16:52:29;;;;;;;1.97;1.87;;;15.90;60.00;;;;;;4979138;28;20408;-84
2020/12/22 16:54:55;;;;;;;1.42;1.33;;;16.00;60.20;;;;;;4982198;28;20408;-95
2020/12/22 16:57:34;;;;;;;1.60;1.50;;;16.30;58.90;;;;;;4968160;28;20279;-96
2020/12/22 17:03:22;;;;;;;2.57;1.83;;;15.70;57.90;;;;;;5001967;28;20383;-94
2020/12/22 17:09:12;;;;;;;2.40;2.20;;;16.10;58.50;;;;;;5005455;28;20269;-94
2020/12/22 17:15:00;;;;;;;1.97;1.80;;;16.40;57.20;;;;;;5008620;28;20386;-93
2020/12/22 17:20:48;;;;;;;2.70;2.23;;;16.50;56.90;;;;;;5010848;28;20631;-93
2020/12/22 17:26:36;;;;;;;2.70;2.50;;;16.70;55.70;;;;;;5008965;28;20450;-94
2020/12/22 17:32:24;;;;;;;5.13;3.33;;;16.60;55.70;;;;;;5006972;28;20160;-93
2020/12/22 17:41:48;;;;;;;1.90;1.80;;;16.50;56.60;;;;;;5008430;28;20372;-95
2020/12/22 17:47:36;;;;;;;2.97;2.53;;;16.40;56.70;;;;;;5009165;28;20196;-93
2020/12/22 17:53:24;;;;;;;4.30;3.57;;;16.60;55.40;;;;;;5004023;28;20737;-95
2020/12/22 17:59:12;;;;;;;5.67;4.73;;;16.80;53.80;;;;;;5002824;28;20468;-95
2020/12/22 18:08:22;;;;;;;8.02;7.22;;;17.40;52.20;;;;;;4998709;28;20986;-94
2020/12/22 18:14:10;;;;;;;8.40;6.90;;;17.60;51.80;;;;;;4999868;28;20159;-93
2020/12/22 18:19:58;;;;;;;9.53;8.40;;;17.80;50.60;;;;;;5010391;28;20594;-94
2020/12/22 18:26:27;;;;;;;5.40;4.90;;;17.70;50.60;;;;;;5000699;28;20179;-93
2020/12/22 18:28:52;;;;;;;7.63;7.03;;;17.80;50.30;;;;;;4982631;28;20793;-93
2020/12/22 18:31:19;;;;;;;7.83;7.13;;;17.90;50.10;;;;;;4983119;28;20486;-93
2020/12/22 18:33:45;;;;;;;10.63;9.53;;;17.20;50.50;;;;;;4980948;28;20444;-93
2020/12/22 18:36:19;;;;;;;8.33;7.53;;;17.40;51.70;;;;;;4983449;28;20418;-93
2020/12/22 18:39:07;;;;;;;5.50;5.00;;;17.40;51.60;;;;;;4982931;28;20232;-93
2020/12/22 18:41:33;;;;;;;4.43;4.03;;;17.40;51.20;;;;;;4982966;28;20580;-93
2020/12/22 18:44:15;;;;;;;5.77;5.27;;;17.40;51.60;;;;;;4982953;28;20447;-93
2020/12/22 18:46:41;;;;;;;5.60;5.03;;;17.50;51.30;;;;;;4983308;28;20239;-92
2020/12/22 18:49:25;;;;;;;5.27;4.57;;;17.60;50.90;;;;;;4983034;28;20760;-91
2020/12/22 18:51:52;;;;;;;5.20;4.20;;;17.60;50.90;;;;;;4982165;28;20192;-93
2020/12/22 18:54:41;;;;;;;4.20;3.80;;;17.40;50.80;;;;;;4982233;28;20508;-93
2020/12/22 18:57:07;;;;;;;6.23;4.00;;;17.50;50.50;;;;;;4983018;28;20417;-93
2020/12/22 18:59:36;;;;;;;4.35;3.92;;;17.40;51.90;;;;;;4981480;28;20412;-93
2020/12/22 19:02:02;;;;;;;3.90;3.60;;;17.00;51.70;;;;;;4983436;28;20197;-94
2020/12/22 19:04:27;;;;;;;3.97;3.60;;;17.10;52.40;;;;;;4983118;28;20857;-94
2020/12/22 19:07:14;;;;;;;4.60;4.30;;;17.20;52.90;;;;;;4984786;28;20219;-94
2020/12/22 19:09:40;;;;;;;4.78;4.38;;;17.60;52.80;;;;;;4983473;28;20416;-93
2020/12/22 19:12:30;;;;;;;7.10;6.17;;;17.40;51.80;;;;;;4983039;28;20226;-93
2020/12/22 19:14:56;;;;;;;7.53;6.83;;;17.60;51.20;;;;;;4979331;28;20401;-93
2020/12/22 19:17:22;;;;;;;7.63;6.70;;;17.70;50.90;;;;;;4978816;28;20418;-94
2020/12/22 19:23:10;;;;;;;5.83;5.30;;;18.20;50.30;;;;;;4996888;28;20952;-92
2020/12/22 19:26:15;;;;;;;5.60;4.97;;;17.80;50.20;;;;;;4982787;28;20471;-91
2020/12/22 19:28:40;;;;;;;4.73;4.33;;;17.90;50.20;;;;;;4983956;28;20665;-93
2020/12/22 19:31:53;;;;;;;4.07;3.77;;;17.70;50.00;;;;;;4982364;28;20482;-92
2020/12/22 19:34:19;;;;;;;5.60;4.90;;;17.70;50.40;;;;;;4984077;28;20175;-95
2020/12/22 19:40:14;;;;;;;2.70;2.50;;;17.00;51.00;;;;;;4998207;28;20470;-92
2020/12/22 19:42:44;;;;;;;91.87;65.10;;;17.10;52.20;;;;;;4987009;28;20196;-93
2020/12/22 19:45:10;;;;;;;3.93;3.47;;;16.30;52.50;;;;;;4985732;28;20436;-93
2020/12/22 19:47:36;;;;;;;2.90;2.60;;;16.60;53.40;;;;;;4988051;28;20439;-93
2020/12/22 19:50:31;;;;;;;3.07;2.87;;;16.30;53.80;;;;;;4986490;28;20404;-93
2020/12/22 19:52:57;;;;;;;3.83;3.42;;;17.20;53.90;;;;;;4983941;28;20488;-94
2020/12/22 19:55:23;;;;;;;4.60;4.10;;;17.10;53.00;;;;;;4983108;28;20416;-95
2020/12/22 20:01:16;;;;;;;4.00;3.70;;;17.30;51.80;;;;;;4999803;28;20179;-95
2020/12/22 20:07:22;;;;;;;3.77;3.33;;;17.50;50.60;;;;;;5000859;28;20466;-95
2020/12/22 20:09:48;;;;;;;3.43;3.13;;;17.80;50.00;;;;;;4985066;28;20507;-95
2020/12/22 20:13:04;;;;;;;3.70;3.10;;;17.80;49.80;;;;;;4987219;28;20795;-94